Shannon, Ireland

6:03 PM IST on September 27, 2016 (GMT +0100)
Shannon | | Change Station

Elev 66 ft 52.70 °N, 8.92 °W | Updated 33 minutes ago

Scattered Clouds
Scattered Clouds
63 °F
Feels Like 63 °F
N
18
Wind Variable Wind from West

Today
High -- | Low -- °F
--% Chance of Precip.
Yesterday
High -- | Low -- °F
Precip. -- in
Pressure 30.15 in
Visibility 6.2 miles
Clouds Few 1700 ft
Scattered Clouds 10000 ft
Dew Point 55 °F
Humidity 77%
Rainfall 0.00 in
Snow Depth Not available.
7:30 AM 7:21 PM
Waning Crescent, 10% visible
METAR EINN 271630Z 26016KT 9999 FEW017 SCT100 17/13 Q1021 NOSIG
Pressure 30.15 in
Visibility 6.2 miles
Clouds Few 1700 ft
Scattered Clouds 10000 ft
Dew Point 55 °F
Humidity 77%
Rainfall 0.00 in
Snow Depth Not available.
7:30 AM 7:21 PM
Waning Crescent, 10% visible
METAR EINN 271630Z 26016KT 9999 FEW017 SCT100 17/13 Q1021 NOSIG

10-Day Weather Forecast

×

Almanac

Astronomy

Sep. 27, 2016 Rise Set
Actual Time
Civil Twilight
Nautical Twilight
Astronomical Twilight
Moon
Length of Visible Light
Length of Day
Tomorrow will be .
, % of the Moon is Illuminated

Today's Extremes

Country Highs Country Lows

Community

WunderPhotos

Upload Photos

1,942,130 photos uploaded!

WunderBlog® & News

Nearby

Air Quality

  Air Quality AQ Index Pollutant
Not available.

Snow Depth

Station Depth Elevation

Earthquake Activity

City Distance Mag. Time & Date
Minimum magnitude displayed is 2.5.

Coastal Water Temperatures

Place Temperature

Stations

Nearby Weather Stations

Station Location Temp. Windchill Dew Point Humidity Wind Precip. Elev Updated Type